sensor_id;sensor_type;location;lat;lon;timestamp;pressure;altitude;pressure_sealevel;temperature;humidity
13705;BME280;6924;52.122;9.952;2023-11-21T00:02:12;99926.13;;;7.28;100.00
13705;BME280;6924;52.122;9.952;2023-11-21T00:04:38;99928.13;;;7.28;100.00
13705;BME280;6924;52.122;9.952;2023-11-21T00:07:06;99934.03;;;7.26;100.00
13705;BME280;6924;52.122;9.952;2023-11-21T00:09:33;99931.91;;;7.18;100.00
13705;BME280;6924;52.122;9.952;2023-11-21T00:12:00;99938.06;;;7.20;100.00
13705;BME280;6924;52.122;9.952;2023-11-21T00:14:26;99935.38;;;7.15;100.00
13705;BME280;6924;52.122;9.952;2023-11-21T00:16:53;99930.97;;;7.09;100.00
13705;BME280;6924;52.122;9.952;2023-11-21T00:19:20;99943.00;;;6.95;100.00
13705;BME280;6924;52.122;9.952;2023-11-21T00:21:46;99941.41;;;6.89;100.00
13705;BME280;6924;52.122;9.952;2023-11-21T00:24:14;99949.69;;;6.99;100.00
13705;BME280;6924;52.122;9.952;2023-11-21T00:26:40;99940.09;;;7.00;100.00
13705;BME280;6924;52.122;9.952;2023-11-21T00:29:07;99939.31;;;7.14;100.00
13705;BME280;6924;52.122;9.952;2023-11-21T00:31:33;99946.94;;;7.27;100.00
13705;BME280;6924;52.122;9.952;2023-11-21T00:34:02;99954.78;;;7.30;100.00
13705;BME280;6924;52.122;9.952;2023-11-21T00:36:28;99946.13;;;7.27;100.00
13705;BME280;6924;52.122;9.952;2023-11-21T00:38:55;99954.84;;;7.25;100.00
13705;BME280;6924;52.122;9.952;2023-11-21T00:41:23;99950.00;;;7.31;100.00
13705;BME280;6924;52.122;9.952;2023-11-21T00:43:49;99945.63;;;7.38;100.00
13705;BME280;6924;52.122;9.952;2023-11-21T00:46:16;99951.72;;;7.45;100.00
13705;BME280;6924;52.122;9.952;2023-11-21T00:48:42;99947.59;;;7.38;100.00
13705;BME280;6924;52.122;9.952;2023-11-21T00:51:09;99954.81;;;7.44;100.00
13705;BME280;6924;52.122;9.952;2023-11-21T00:53:35;99959.50;;;7.49;100.00
13705;BME280;6924;52.122;9.952;2023-11-21T00:56:02;99951.72;;;7.45;100.00
13705;BME280;6924;52.122;9.952;2023-11-21T00:58:30;99955.34;;;7.46;100.00
13705;BME280;6924;52.122;9.952;2023-11-21T01:00:56;99956.94;;;7.52;100.00
13705;BME280;6924;52.122;9.952;2023-11-21T01:03:23;99965.97;;;7.49;100.00
13705;BME280;6924;52.122;9.952;2023-11-21T01:05:49;99964.44;;;7.57;100.00
13705;BME280;6924;52.122;9.952;2023-11-21T01:08:16;99961.81;;;7.60;100.00
13705;BME280;6924;52.122;9.952;2023-11-21T01:10:42;99965.91;;;7.68;100.00
13705;BME280;6924;52.122;9.952;2023-11-21T01:13:09;99960.28;;;7.68;100.00
13705;BME280;6924;52.122;9.952;2023-11-21T01:15:37;99963.22;;;7.63;100.00
13705;BME280;6924;52.122;9.952;2023-11-21T01:18:04;99976.53;;;7.71;100.00
13705;BME280;6924;52.122;9.952;2023-11-21T01:20:30;99973.44;;;7.73;100.00
13705;BME280;6924;52.122;9.952;2023-11-21T01:22:57;99974.25;;;7.73;100.00
13705;BME280;6924;52.122;9.952;2023-11-21T01:25:24;99981.97;;;7.68;100.00
13705;BME280;6924;52.122;9.952;2023-11-21T01:27:51;99978.94;;;7.64;100.00
13705;BME280;6924;52.122;9.952;2023-11-21T01:30:17;99978.59;;;7.52;100.00
13705;BME280;6924;52.122;9.952;2023-11-21T01:32:45;99978.59;;;7.52;100.00
13705;BME280;6924;52.122;9.952;2023-11-21T01:35:12;99975.78;;;7.52;100.00
13705;BME280;6924;52.122;9.952;2023-11-21T01:37:38;99981.72;;;7.50;100.00
13705;BME280;6924;52.122;9.952;2023-11-21T01:40:06;99970.78;;;7.49;100.00
13705;BME280;6924;52.122;9.952;2023-11-21T01:42:36;99975.78;;;7.52;100.00
13705;BME280;6924;52.122;9.952;2023-11-21T01:45:03;99985.47;;;7.45;100.00
13705;BME280;6924;52.122;9.952;2023-11-21T01:47:30;99991.94;;;7.46;100.00
13705;BME280;6924;52.122;9.952;2023-11-21T01:49:58;99992.31;;;7.39;100.00
13705;BME280;6924;52.122;9.952;2023-11-21T01:52:25;99990.63;;;7.38;100.00
13705;BME280;6924;52.122;9.952;2023-11-21T01:54:52;99986.00;;;7.48;100.00
13705;BME280;6924;52.122;9.952;2023-11-21T01:57:19;99991.53;;;7.53;100.00
13705;BME280;6924;52.122;9.952;2023-11-21T01:59:48;99991.81;;;7.51;100.00
13705;BME280;6924;52.122;9.952;2023-11-21T02:02:15;99994.75;;;7.46;100.00
13705;BME280;6924;52.122;9.952;2023-11-21T02:04:42;99997.03;;;7.44;100.00
13705;BME280;6924;52.122;9.952;2023-11-21T02:07:10;99997.41;;;7.37;100.00
13705;BME280;6924;52.122;9.952;2023-11-21T02:09:36;99999.53;;;7.45;100.00
13705;BME280;6924;52.122;9.952;2023-11-21T02:12:04;99995.28;;;7.48;100.00
13705;BME280;6924;52.122;9.952;2023-11-21T02:14:31;99994.78;;;7.60;100.00
13705;BME280;6924;52.122;9.952;2023-11-21T02:16:58;99986.84;;;7.62;100.00
13705;BME280;6924;52.122;9.952;2023-11-21T02:19:26;99991.94;;;7.60;100.00
13705;BME280;6924;52.122;9.952;2023-11-21T02:21:56;99996.13;;;7.62;100.00
13705;BME280;6924;52.122;9.952;2023-11-21T02:24:26;99993.31;;;7.62;100.00
13705;BME280;6924;52.122;9.952;2023-11-21T02:26:52;99994.78;;;7.60;100.00
13705;BME280;6924;52.122;9.952;2023-11-21T02:29:19;99998.91;;;7.49;100.00
13705;BME280;6924;52.122;9.952;2023-11-21T02:31:47;100011.31;;;7.48;100.00
13705;BME280;6924;52.122;9.952;2023-11-21T02:34:14;100015.31;;;7.60;100.00
13705;BME280;6924;52.122;9.952;2023-11-21T02:36:41;100012.09;;;7.67;100.00
13705;BME280;6924;52.122;9.952;2023-11-21T02:39:08;100007.44;;;7.76;100.00
13705;BME280;6924;52.122;9.952;2023-11-21T02:41:37;100007.44;;;7.76;100.00
13705;BME280;6924;52.122;9.952;2023-11-21T02:44:04;100008.88;;;7.74;100.00
13705;BME280;6924;52.122;9.952;2023-11-21T02:46:32;100006.28;;;7.77;100.00
13705;BME280;6924;52.122;9.952;2023-11-21T02:48:59;100004.81;;;7.80;100.00
13705;BME280;6924;52.122;9.952;2023-11-21T02:51:25;100011.94;;;7.58;100.00
13705;BME280;6924;52.122;9.952;2023-11-21T02:53:52;100017.97;;;7.52;100.00
13705;BME280;6924;52.122;9.952;2023-11-21T02:56:18;100008.81;;;7.46;100.00
13705;BME280;6924;52.122;9.952;2023-11-21T02:58:46;100013.59;;;7.45;100.00
13705;BME280;6924;52.122;9.952;2023-11-21T03:01:13;100010.72;;;7.32;100.00
13705;BME280;6924;52.122;9.952;2023-11-21T03:03:39;100011.09;;;7.44;100.00
13705;BME280;6924;52.122;9.952;2023-11-21T03:06:07;100006.13;;;7.55;100.00
13705;BME280;6924;52.122;9.952;2023-11-21T03:08:33;100016.31;;;7.51;100.00
13705;BME280;6924;52.122;9.952;2023-11-21T03:11:00;100010.25;;;7.43;100.00
13705;BME280;6924;52.122;9.952;2023-11-21T03:13:28;100011.84;;;7.50;100.00
13705;BME280;6924;52.122;9.952;2023-11-21T03:15:55;100020.28;;;7.50;100.00
13705;BME280;6924;52.122;9.952;2023-11-21T03:18:22;100026.94;;;7.54;100.00
13705;BME280;6924;52.122;9.952;2023-11-21T03:20:48;100029.03;;;7.48;100.00
13705;BME280;6924;52.122;9.952;2023-11-21T03:23:15;100027.69;;;7.45;100.00
13705;BME280;6924;52.122;9.952;2023-11-21T03:25:42;100030.75;;;7.63;100.00
13705;BME280;6924;52.122;9.952;2023-11-21T03:28:08;100039.41;;;7.66;100.00
13705;BME280;6924;52.122;9.952;2023-11-21T03:30:35;100042.91;;;7.58;100.00
13705;BME280;6924;52.122;9.952;2023-11-21T03:33:03;100039.50;;;7.61;100.00
13705;BME280;6924;52.122;9.952;2023-11-21T03:35:29;100053.56;;;7.61;100.00
13705;BME280;6924;52.122;9.952;2023-11-21T03:37:56;100051.34;;;7.58;100.00
13705;BME280;6924;52.122;9.952;2023-11-21T03:40:22;100051.88;;;7.60;100.00
13705;BME280;6924;52.122;9.952;2023-11-21T03:42:49;100048.91;;;7.38;100.00
13705;BME280;6924;52.122;9.952;2023-11-21T03:45:16;100045.78;;;7.39;100.00
13705;BME280;6924;52.122;9.952;2023-11-21T03:47:42;100052.91;;;7.51;100.00
13705;BME280;6924;52.122;9.952;2023-11-21T03:50:10;100051.31;;;7.44;100.00
13705;BME280;6924;52.122;9.952;2023-11-21T03:52:37;100054.38;;;7.48;100.00
13705;BME280;6924;52.122;9.952;2023-11-21T03:55:04;100056.88;;;7.50;100.00
13705;BME280;6924;52.122;9.952;2023-11-21T03:57:30;100062.41;;;7.55;100.00
13705;BME280;6924;52.122;9.952;2023-11-21T03:59:57;100063.88;;;7.52;100.00
13705;BME280;6924;52.122;9.952;2023-11-21T04:02:23;100067.75;;;7.37;100.00
13705;BME280;6924;52.122;9.952;2023-11-21T04:04:51;100065.63;;;7.29;100.00
13705;BME280;6924;52.122;9.952;2023-11-21T04:07:19;100068.00;;;7.22;100.00
13705;BME280;6924;52.122;9.952;2023-11-21T04:09:47;100063.00;;;7.19;100.00
13705;BME280;6924;52.122;9.952;2023-11-21T04:12:13;100071.25;;;7.29;100.00
13705;BME280;6924;52.122;9.952;2023-11-21T04:14:40;100071.78;;;7.31;100.00
13705;BME280;6924;52.122;9.952;2023-11-21T04:17:06;100067.06;;;7.45;100.00
13705;BME280;6924;52.122;9.952;2023-11-21T04:19:33;100076.50;;;7.36;100.00
13705;BME280;6924;52.122;9.952;2023-11-21T04:21:59;100072.03;;;7.35;100.00
13705;BME280;6924;52.122;9.952;2023-11-21T04:24:27;100079.41;;;7.31;100.00
13705;BME280;6924;52.122;9.952;2023-11-21T04:26:53;100082.66;;;7.38;100.00
13705;BME280;6924;52.122;9.952;2023-11-21T04:29:20;100083.19;;;7.40;100.00
13705;BME280;6924;52.122;9.952;2023-11-21T04:31:46;100083.66;;;7.28;100.00
13705;BME280;6924;52.122;9.952;2023-11-21T04:34:14;100086.69;;;7.32;100.00
13705;BME280;6924;52.122;9.952;2023-11-21T04:36:40;100084.41;;;7.34;100.00
13705;BME280;6924;52.122;9.952;2023-11-21T04:39:07;100086.00;;;7.40;100.00
13705;BME280;6924;52.122;9.952;2023-11-21T04:41:35;100095.75;;;7.48;100.00
13705;BME280;6924;52.122;9.952;2023-11-21T04:44:04;100100.06;;;7.40;100.00
13705;BME280;6924;52.122;9.952;2023-11-21T04:46:31;100098.84;;;7.46;100.00
13705;BME280;6924;52.122;9.952;2023-11-21T04:48:58;100109.88;;;7.42;100.00
13705;BME280;6924;52.122;9.952;2023-11-21T04:51:24;100105.09;;;7.43;100.00
13705;BME280;6924;52.122;9.952;2023-11-21T04:53:51;100109.66;;;7.39;100.00
13705;BME280;6924;52.122;9.952;2023-11-21T04:56:17;100108.91;;;7.33;100.00
13705;BME280;6924;52.122;9.952;2023-11-21T04:58:45;100115.19;;;7.25;100.00
13705;BME280;6924;52.122;9.952;2023-11-21T05:01:12;100126.81;;;7.18;100.00
13705;BME280;6924;52.122;9.952;2023-11-21T05:03:38;100131.03;;;7.21;100.00
13705;BME280;6924;52.122;9.952;2023-11-21T05:06:06;100127.84;;;7.28;100.00
13705;BME280;6924;52.122;9.952;2023-11-21T05:08:32;100129.22;;;7.30;100.00
13705;BME280;6924;52.122;9.952;2023-11-21T05:10:59;100134.59;;;7.27;100.00
13705;BME280;6924;52.122;9.952;2023-11-21T05:13:25;100137.53;;;7.16;100.00
13705;BME280;6924;52.122;9.952;2023-11-21T05:15:54;100135.34;;;7.13;100.00
13705;BME280;6924;52.122;9.952;2023-11-21T05:18:20;100134.44;;;7.18;100.00
13705;BME280;6924;52.122;9.952;2023-11-21T05:20:47;100141.28;;;7.31;100.00
13705;BME280;6924;52.122;9.952;2023-11-21T05:23:13;100139.91;;;7.47;100.00
13705;BME280;6924;52.122;9.952;2023-11-21T05:25:40;100138.69;;;7.53;100.00
13705;BME280;6924;52.122;9.952;2023-11-21T05:28:07;100146.31;;;7.53;100.00
13705;BME280;6924;52.122;9.952;2023-11-21T05:30:34;100142.34;;;7.54;100.00
13705;BME280;6924;52.122;9.952;2023-11-21T05:33:01;100139.91;;;7.47;100.00
13705;BME280;6924;52.122;9.952;2023-11-21T05:35:28;100142.44;;;7.49;100.00
13705;BME280;6924;52.122;9.952;2023-11-21T05:37:54;100152.31;;;7.46;100.00
13705;BME280;6924;52.122;9.952;2023-11-21T05:40:21;100151.53;;;7.40;100.00
13705;BME280;6924;52.122;9.952;2023-11-21T05:42:48;100157.88;;;7.51;100.00
13705;BME280;6924;52.122;9.952;2023-11-21T05:45:17;100157.63;;;7.66;100.00
13705;BME280;6924;52.122;9.952;2023-11-21T05:47:45;100165.09;;;7.76;100.00
13705;BME280;6924;52.122;9.952;2023-11-21T05:50:14;100164.56;;;7.74;100.00
13705;BME280;6924;52.122;9.952;2023-11-21T05:52:41;100172.63;;;7.81;100.00
13705;BME280;6924;52.122;9.952;2023-11-21T05:55:08;100169.63;;;7.91;100.00
13705;BME280;6924;52.122;9.952;2023-11-21T05:57:36;100176.31;;;7.95;100.00
13705;BME280;6924;52.122;9.952;2023-11-21T06:00:04;100171.44;;;8.01;100.00
13705;BME280;6924;52.122;9.952;2023-11-21T06:02:37;100178.53;;;7.98;100.00
13705;BME280;6924;52.122;9.952;2023-11-21T06:05:04;100180.34;;;8.08;100.00
13705;BME280;6924;52.122;9.952;2023-11-21T06:07:32;100185.88;;;8.13;100.00
13705;BME280;6924;52.122;9.952;2023-11-21T06:09:59;100185.34;;;8.11;100.00
13705;BME280;6924;52.122;9.952;2023-11-21T06:12:24;100187.03;;;8.12;100.00
13705;BME280;6924;52.122;9.952;2023-11-21T06:14:51;100198.19;;;8.17;100.00
13705;BME280;6924;52.122;9.952;2023-11-21T06:17:17;100186.34;;;8.20;100.00
13705;BME280;6924;52.122;9.952;2023-11-21T06:19:44;100194.78;;;8.20;100.00
13705;BME280;6924;52.122;9.952;2023-11-21T06:22:11;100195.31;;;8.22;100.00
13705;BME280;6924;52.122;9.952;2023-11-21T06:24:39;100202.84;;;8.27;100.00
13705;BME280;6924;52.122;9.952;2023-11-21T06:27:07;100198.22;;;8.31;100.00
13705;BME280;6924;52.122;9.952;2023-11-21T06:29:34;100209.75;;;8.35;100.00
13705;BME280;6924;52.122;9.952;2023-11-21T06:32:00;100216.44;;;8.39;100.00
13705;BME280;6924;52.122;9.952;2023-11-21T06:34:28;100217.25;;;8.39;100.00
13705;BME280;6924;52.122;9.952;2023-11-21T06:36:55;100233.59;;;8.42;100.00
13705;BME280;6924;52.122;9.952;2023-11-21T06:39:21;100223.16;;;8.43;100.00
13705;BME280;6924;52.122;9.952;2023-11-21T06:41:50;100229.31;;;8.45;100.00
13705;BME280;6924;52.122;9.952;2023-11-21T06:44:25;100223.16;;;8.43;100.00
13705;BME280;6924;52.122;9.952;2023-11-21T06:46:52;100237.97;;;8.48;100.00
13705;BME280;6924;52.122;9.952;2023-11-21T06:49:18;100237.97;;;8.48;100.00
13705;BME280;6924;52.122;9.952;2023-11-21T06:51:51;100242.19;;;8.51;100.00
13705;BME280;6924;52.122;9.952;2023-11-21T06:54:23;100245.84;;;8.52;100.00
13705;BME280;6924;52.122;9.952;2023-11-21T06:56:53;100250.00;;;8.54;100.00
13705;BME280;6924;52.122;9.952;2023-11-21T06:59:22;100253.66;;;8.55;100.00
13705;BME280;6924;52.122;9.952;2023-11-21T07:01:53;100253.13;;;8.53;100.00
13705;BME280;6924;52.122;9.952;2023-11-21T07:04:36;100250.66;;;8.51;100.00
13705;BME280;6924;52.122;9.952;2023-11-21T07:07:13;100252.59;;;8.51;100.00
13705;BME280;6924;52.122;9.952;2023-11-21T07:09:47;100258.69;;;8.58;100.00
13705;BME280;6924;52.122;9.952;2023-11-21T07:12:19;100253.47;;;8.51;100.00
13705;BME280;6924;52.122;9.952;2023-11-21T07:15:04;100260.75;;;8.52;100.00
13705;BME280;6924;52.122;9.952;2023-11-21T07:17:34;100274.22;;;8.55;100.00
13705;BME280;6924;52.122;9.952;2023-11-21T07:20:02;100269.22;;;8.52;100.00
13705;BME280;6924;52.122;9.952;2023-11-21T07:22:49;100263.28;;;8.54;100.00
13705;BME280;6924;52.122;9.952;2023-11-21T07:26:10;100284.28;;;8.61;100.00
13705;BME280;6924;52.122;9.952;2023-11-21T07:28:41;100285.44;;;8.60;100.00
13705;BME280;6924;52.122;9.952;2023-11-21T07:31:09;100287.94;;;8.62;100.00
13705;BME280;6924;52.122;9.952;2023-11-21T07:33:54;100288.78;;;8.62;100.00
13705;BME280;6924;52.122;9.952;2023-11-21T07:36:32;100293.25;;;8.63;100.00
13705;BME280;6924;52.122;9.952;2023-11-21T07:38:59;100298.38;;;8.61;100.00
13705;BME280;6924;52.122;9.952;2023-11-21T07:41:45;100309.88;;;8.65;100.00
13705;BME280;6924;52.122;9.952;2023-11-21T07:44:29;100306.41;;;8.54;100.00
13705;BME280;6924;52.122;9.952;2023-11-21T07:46:57;100315.97;;;8.53;100.00
13705;BME280;6924;52.122;9.952;2023-11-21T07:49:27;100318.91;;;8.29;100.00
13705;BME280;6924;52.122;9.952;2023-11-21T07:52:10;100316.91;;;8.11;100.00
13705;BME280;6924;52.122;9.952;2023-11-21T07:54:48;100318.41;;;7.65;100.00
13705;BME280;6924;52.122;9.952;2023-11-21T07:58:05;100327.09;;;7.44;100.00
13705;BME280;6924;52.122;9.952;2023-11-21T08:00:27;100336.38;;;7.21;100.00
13705;BME280;6924;52.122;9.952;2023-11-21T08:02:55;100340.22;;;7.01;100.00
13705;BME280;6924;52.122;9.952;2023-11-21T08:05:27;100352.69;;;6.90;100.00
13705;BME280;6924;52.122;9.952;2023-11-21T08:10:50;100363.88;;;6.66;100.00
13705;BME280;6924;52.122;9.952;2023-11-21T08:13:35;100366.63;;;6.36;100.00
13705;BME280;6924;52.122;9.952;2023-11-21T08:16:04;100373.91;;;6.43;100.00
13705;BME280;6924;52.122;9.952;2023-11-21T08:18:51;100382.06;;;6.44;100.00
13705;BME280;6924;52.122;9.952;2023-11-21T08:21:38;100377.00;;;6.41;100.00
13705;BME280;6924;52.122;9.952;2023-11-21T08:24:08;100392.47;;;6.38;100.00
13705;BME280;6924;52.122;9.952;2023-11-21T08:27:10;100390.25;;;6.35;100.00
13705;BME280;6924;52.122;9.952;2023-11-21T08:29:37;100402.31;;;6.36;100.00
13705;BME280;6924;52.122;9.952;2023-11-21T08:32:05;100419.00;;;6.22;100.00
13705;BME280;6924;52.122;9.952;2023-11-21T08:34:32;100427.13;;;6.18;100.00
13705;BME280;6924;52.122;9.952;2023-11-21T08:36:58;100428.59;;;6.11;100.00
13705;BME280;6924;52.122;9.952;2023-11-21T08:39:30;100437.78;;;6.21;100.00
13705;BME280;6924;52.122;9.952;2023-11-21T08:42:05;100438.44;;;6.03;100.00
13705;BME280;6924;52.122;9.952;2023-11-21T08:44:44;100432.84;;;5.93;100.00
13705;BME280;6924;52.122;9.952;2023-11-21T08:47:20;100442.91;;;6.09;100.00
13705;BME280;6924;52.122;9.952;2023-11-21T08:49:55;100435.63;;;5.93;100.00
13705;BME280;6924;52.122;9.952;2023-11-21T08:52:26;100433.69;;;5.93;100.00
13705;BME280;6924;52.122;9.952;2023-11-21T08:55:18;100430.63;;;5.95;100.00
13705;BME280;6924;52.122;9.952;2023-11-21T09:00:36;100446.00;;;6.08;100.00
13705;BME280;6924;52.122;9.952;2023-11-21T09:03:12;100454.19;;;6.04;100.00
13705;BME280;6924;52.122;9.952;2023-11-21T09:05:47;100455.88;;;6.00;100.00
13705;BME280;6924;52.122;9.952;2023-11-21T09:08:47;100448.84;;;6.03;100.00
13705;BME280;6924;52.122;9.952;2023-11-21T09:11:23;100460.38;;;5.96;100.00
13705;BME280;6924;52.122;9.952;2023-11-21T09:14:13;100464.81;;;6.07;100.00
13705;BME280;6924;52.122;9.952;2023-11-21T09:16:50;100464.88;;;5.82;100.00
13705;BME280;6924;52.122;9.952;2023-11-21T09:19:39;100469.38;;;5.98;100.00
13705;BME280;6924;52.122;9.952;2023-11-21T09:25:12;100484.50;;;6.07;100.00
13705;BME280;6924;52.122;9.952;2023-11-21T09:27:40;100484.81;;;5.95;100.00
13705;BME280;6924;52.122;9.952;2023-11-21T09:30:12;100492.06;;;6.02;100.00
13705;BME280;6924;52.122;9.952;2023-11-21T09:32:40;100483.97;;;5.79;100.00
13705;BME280;6924;52.122;9.952;2023-11-21T09:35:19;100494.03;;;5.91;100.00
13705;BME280;6924;52.122;9.952;2023-11-21T09:37:46;100503.06;;;5.77;100.00
13705;BME280;6924;52.122;9.952;2023-11-21T09:40:32;100507.28;;;5.80;100.00
13705;BME280;6924;52.122;9.952;2023-11-21T09:43:15;100519.38;;;5.70;100.00
13705;BME280;6924;52.122;9.952;2023-11-21T09:45:45;100523.31;;;5.69;100.00
13705;BME280;6924;52.122;9.952;2023-11-21T09:48:22;100529.16;;;5.83;100.00
13705;BME280;6924;52.122;9.952;2023-11-21T09:51:11;100527.75;;;5.96;100.00
13705;BME280;6924;52.122;9.952;2023-11-21T09:53:42;100543.19;;;5.88;100.00
13705;BME280;6924;52.122;9.952;2023-11-21T09:56:18;100539.00;;;5.80;100.00
13705;BME280;6924;52.122;9.952;2023-11-21T09:58:53;100542.63;;;5.91;100.00
13705;BME280;6924;52.122;9.952;2023-11-21T10:01:26;100549.34;;;5.90;100.00
13705;BME280;6924;52.122;9.952;2023-11-21T10:03:59;100548.22;;;6.02;100.00
13705;BME280;6924;52.122;9.952;2023-11-21T10:06:32;100564.47;;;6.25;100.00
13705;BME280;6924;52.122;9.952;2023-11-21T10:09:10;100559.69;;;6.31;100.00
13705;BME280;6924;52.122;9.952;2023-11-21T10:11:41;100568.59;;;6.43;100.00
13705;BME280;6924;52.122;9.952;2023-11-21T10:14:12;100578.19;;;6.32;100.00
13705;BME280;6924;52.122;9.952;2023-11-21T10:16:44;100568.16;;;6.05;100.00
13705;BME280;6924;52.122;9.952;2023-11-21T10:19:14;100577.06;;;6.38;100.00
13705;BME280;6924;52.122;9.952;2023-11-21T10:21:54;100577.91;;;6.33;100.00
13705;BME280;6924;52.122;9.952;2023-11-21T10:24:23;100569.44;;;6.44;100.00
13705;BME280;6924;52.122;9.952;2023-11-21T10:26:49;100579.63;;;6.29;100.00
13705;BME280;6924;52.122;9.952;2023-11-21T10:29:17;100588.34;;;6.23;100.00
13705;BME280;6924;52.122;9.952;2023-11-21T10:31:44;100585.28;;;6.14;100.00
13705;BME280;6924;52.122;9.952;2023-11-21T10:34:14;100592.81;;;6.29;100.00
13705;BME280;6924;52.122;9.952;2023-11-21T10:37:13;100596.44;;;6.34;100.00
13705;BME280;6924;52.122;9.952;2023-11-21T10:39:41;100594.81;;;6.18;100.00
13705;BME280;6924;52.122;9.952;2023-11-21T10:42:28;100603.19;;;6.28;100.00
13705;BME280;6924;52.122;9.952;2023-11-21T10:45:08;100605.19;;;6.33;100.00
13705;BME280;6924;52.122;9.952;2023-11-21T10:47:40;100603.16;;;6.49;100.00
13705;BME280;6924;52.122;9.952;2023-11-21T10:50:13;100611.34;;;6.30;100.00
13705;BME280;6924;52.122;9.952;2023-11-21T10:53:11;100608.56;;;6.19;100.00
13705;BME280;6924;52.122;9.952;2023-11-21T10:55:38;100611.06;;;6.31;100.00
13705;BME280;6924;52.122;9.952;2023-11-21T10:58:07;100623.38;;;6.46;100.00
13705;BME280;6924;52.122;9.952;2023-11-21T11:00:37;100622.56;;;6.35;100.00
13705;BME280;6924;52.122;9.952;2023-11-21T11:03:16;100626.50;;;6.44;100.00
13705;BME280;6924;52.122;9.952;2023-11-21T11:05:46;100625.69;;;6.23;100.00
13705;BME280;6924;52.122;9.952;2023-11-21T11:08:27;100636.59;;;6.45;100.00
13705;BME280;6924;52.122;9.952;2023-11-21T11:11:02;100631.78;;;6.56;100.00
13705;BME280;6924;52.122;9.952;2023-11-21T11:13:31;100641.84;;;6.67;100.00
13705;BME280;6924;52.122;9.952;2023-11-21T11:16:07;100637.69;;;6.54;100.00
13705;BME280;6924;52.122;9.952;2023-11-21T11:18:44;100648.06;;;6.59;100.00
13705;BME280;6924;52.122;9.952;2023-11-21T11:21:27;100658.44;;;6.69;100.00
13705;BME280;6924;52.122;9.952;2023-11-21T11:24:33;100654.50;;;6.70;100.00
13705;BME280;6924;52.122;9.952;2023-11-21T11:27:22;100645.50;;;6.68;100.00
13705;BME280;6924;52.122;9.952;2023-11-21T11:33:08;100654.53;;;6.59;100.00
13705;BME280;6924;52.122;9.952;2023-11-21T11:35:49;100648.09;;;6.54;100.00
13705;BME280;6924;52.122;9.952;2023-11-21T11:38:48;100648.66;;;6.51;100.00
13705;BME280;6924;52.122;9.952;2023-11-21T11:41:34;100649.56;;;6.31;100.00
13705;BME280;6924;52.122;9.952;2023-11-21T11:47:28;100665.56;;;6.35;100.00
13705;BME280;6924;52.122;9.952;2023-11-21T11:50:13;100668.06;;;6.47;100.00
13705;BME280;6924;52.122;9.952;2023-11-21T11:52:45;100665.81;;;6.49;100.00
13705;BME280;6924;52.122;9.952;2023-11-21T11:55:23;100676.44;;;6.62;100.00
13705;BME280;6924;52.122;9.952;2023-11-21T11:58:15;100671.34;;;6.70;100.00
13705;BME280;6924;52.122;9.952;2023-11-21T12:00:45;100676.69;;;6.71;100.00
13705;BME280;6924;52.122;9.952;2023-11-21T12:03:15;100670.56;;;6.54;100.00
13705;BME280;6924;52.122;9.952;2023-11-21T12:05:56;100669.16;;;6.61;100.00
13705;BME280;6924;52.122;9.952;2023-11-21T12:08:23;100668.03;;;6.57;100.00
13705;BME280;6924;52.122;9.952;2023-11-21T12:10:56;100676.97;;;6.70;100.00
13705;BME280;6924;52.122;9.952;2023-11-21T12:13:30;100684.53;;;6.85;100.00
13705;BME280;6924;52.122;9.952;2023-11-21T12:16:01;100680.03;;;6.83;100.00
13705;BME280;6924;52.122;9.952;2023-11-21T12:18:38;100679.81;;;6.65;100.00
13705;BME280;6924;52.122;9.952;2023-11-21T12:21:08;100674.22;;;6.59;100.00
13705;BME280;6924;52.122;9.952;2023-11-21T12:26:42;100703.19;;;6.55;100.00
13705;BME280;6924;52.122;9.952;2023-11-21T12:29:29;100706.25;;;6.53;100.00
13705;BME280;6924;52.122;9.952;2023-11-21T12:32:06;100705.16;;;6.44;100.00
13705;BME280;6924;52.122;9.952;2023-11-21T12:34:46;100716.66;;;6.58;100.00
13705;BME280;6924;52.122;9.952;2023-11-21T12:37:37;100718.38;;;6.38;100.00
13705;BME280;6924;52.122;9.952;2023-11-21T12:40:15;100722.59;;;6.26;100.00
13705;BME280;6924;52.122;9.952;2023-11-21T12:42:47;100707.41;;;6.32;100.00
13705;BME280;6924;52.122;9.952;2023-11-21T12:45:41;100710.75;;;6.49;100.00
13705;BME280;6924;52.122;9.952;2023-11-21T12:48:21;100716.41;;;6.44;100.00
13705;BME280;6924;52.122;9.952;2023-11-21T12:50:52;100717.22;;;6.50;100.00
13705;BME280;6924;52.122;9.952;2023-11-21T12:53:26;100729.56;;;6.64;100.00
13705;BME280;6924;52.122;9.952;2023-11-21T12:56:12;100735.19;;;6.54;100.00
13705;BME280;6924;52.122;9.952;2023-11-21T12:59:05;100739.44;;;6.46;100.00
13705;BME280;6924;52.122;9.952;2023-11-21T13:01:43;100741.94;;;6.48;100.00
13705;BME280;6924;52.122;9.952;2023-11-21T13:04:14;100741.94;;;6.48;100.00
13705;BME280;6924;52.122;9.952;2023-11-21T13:06:54;100749.28;;;6.49;100.00
13705;BME280;6924;52.122;9.952;2023-11-21T13:09:34;100741.13;;;6.42;100.00
13705;BME280;6924;52.122;9.952;2023-11-21T13:12:10;100753.78;;;6.45;100.00
13705;BME280;6924;52.122;9.952;2023-11-21T13:14:54;100766.13;;;6.23;100.00
13705;BME280;6924;52.122;9.952;2023-11-21T13:17:27;100748.97;;;6.35;100.00
13705;BME280;6924;52.122;9.952;2023-11-21T13:19:59;100743.97;;;6.27;100.00
13705;BME280;6924;52.122;9.952;2023-11-21T13:22:37;100748.75;;;6.26;100.00
13705;BME280;6924;52.122;9.952;2023-11-21T13:25:18;100754.34;;;6.31;100.00
13705;BME280;6924;52.122;9.952;2023-11-21T13:27:54;100744.22;;;6.25;100.00
13705;BME280;6924;52.122;9.952;2023-11-21T13:30:36;100767.25;;;6.27;100.00
13705;BME280;6924;52.122;9.952;2023-11-21T13:33:07;100766.97;;;6.18;100.00
13705;BME280;6924;52.122;9.952;2023-11-21T13:35:37;100772.03;;;6.16;100.00
13705;BME280;6924;52.122;9.952;2023-11-21T13:38:09;100768.38;;;6.36;100.00
13705;BME280;6924;52.122;9.952;2023-11-21T13:40:37;100766.97;;;6.39;100.00
13705;BME280;6924;52.122;9.952;2023-11-21T13:43:08;100774.56;;;6.28;100.00
13705;BME280;6924;52.122;9.952;2023-11-21T13:45:42;100774.56;;;6.23;100.00